Edgely, Pennsylvania
Current Conditions -  °F | °C
As of 2:54 AM on Monday 22 Dec 2014 (Local Time) from KPNE Reporting Station
Overcast Overcast  
Wind Chill: 33°   Ceiling: 2300
Heat Index: 33°   Visibility: 10mi
Dew Point: 24°   Wind: 3mph
Humidity: 70%   Direction: 10°N
Pressure: 30.35"   Gusts: NA
Location:  40.1156°N, 74.8582°W
Report Text: KPNE 220754Z AUTO 01003KT 10SM OVC023 01/M04 A3035 RMK AO2 SLP278 T00061044 TSNO
Loading
Personal Weather Stations






























Interactive Weather Map New forecast layout! Learn more

10-Day Weather Forecast

Advertisements
Track Severe Weather on mobile